createdAt,value
2023-03-12T00:00:20.860Z,97991.97
2023-03-12T00:02:48.259Z,97980.97
2023-03-12T00:05:15.428Z,97948.69
2023-03-12T00:07:42.862Z,97944.41
2023-03-12T00:10:11.168Z,97967.38
2023-03-12T00:12:38.498Z,97927.22
2023-03-12T00:15:06.706Z,97956.03
2023-03-12T00:17:34.277Z,97964.81
2023-03-12T00:20:01.404Z,97976.91
2023-03-12T00:22:28.801Z,97988.19
2023-03-12T00:24:56.777Z,97987.19
2023-03-12T00:27:24.501Z,97970.88
2023-03-12T00:29:51.737Z,97985.16
2023-03-12T00:32:19.630Z,97982.00
2023-03-12T00:34:53.997Z,97958.22
2023-03-12T00:37:22.465Z,97975.66
2023-03-12T00:39:49.611Z,97967.50
2023-03-12T00:42:17.417Z,97973.28
2023-03-12T00:44:45.035Z,98003.28
2023-03-12T00:47:12.481Z,97976.50
2023-03-12T00:49:39.868Z,97990.09
2023-03-12T00:52:07.292Z,97964.38
2023-03-12T00:54:34.726Z,97942.91
2023-03-12T00:57:02.143Z,97947.06
2023-03-12T00:59:29.598Z,97956.22
2023-03-12T01:01:57.220Z,97922.13
2023-03-12T01:04:24.444Z,97972.66
2023-03-12T01:06:52.136Z,97934.50
2023-03-12T01:09:19.691Z,97937.34
2023-03-12T01:11:46.785Z,97917.34
2023-03-12T01:14:14.232Z,97919.28
2023-03-12T01:16:41.282Z,97903.69
2023-03-12T01:19:08.815Z,97903.19
2023-03-12T01:21:36.235Z,97927.28
2023-03-12T01:24:03.979Z,97934.72
2023-03-12T01:26:31.422Z,97938.75
2023-03-12T01:28:59.228Z,97953.81
2023-03-12T01:31:26.946Z,97937.94
2023-03-12T01:33:54.746Z,97966.38
2023-03-12T01:36:26.568Z,97969.19
2023-03-12T01:38:57.077Z,97967.88
2023-03-12T01:41:25.506Z,97968.31
2023-03-12T01:43:53.505Z,97956.19
2023-03-12T01:46:35.992Z,97974.22
2023-03-12T01:49:15.735Z,97962.25
2023-03-12T01:51:59.774Z,97945.72
2023-03-12T01:54:57.947Z,97942.63
2023-03-12T01:57:36.741Z,97934.03
2023-03-12T02:00:11.360Z,97921.38
2023-03-12T02:02:43.159Z,97917.16
2023-03-12T02:05:16.853Z,97913.28
2023-03-12T02:07:44.384Z,97917.53
2023-03-12T02:10:11.796Z,97906.81
2023-03-12T02:12:39.614Z,97913.19
2023-03-12T02:15:07.799Z,97906.88
2023-03-12T02:17:36.430Z,97913.03
2023-03-12T02:20:13.249Z,97917.34
2023-03-12T02:22:41.641Z,97913.06
2023-03-12T02:25:31.168Z,97909.50
2023-03-12T02:27:59.484Z,97925.72
2023-03-12T02:30:27.856Z,97916.53
2023-03-12T02:32:55.640Z,97911.88
2023-03-12T02:35:23.123Z,97909.63
2023-03-12T02:37:51.840Z,97922.25
2023-03-12T02:40:40.174Z,97923.34
2023-03-12T02:43:07.947Z,97927.50
2023-03-12T02:45:36.129Z,97936.78
2023-03-12T02:48:04.590Z,97922.63
2023-03-12T02:50:31.644Z,97923.13
2023-03-12T02:52:58.895Z,97932.38
2023-03-12T02:55:26.357Z,97920.88
2023-03-12T02:57:54.216Z,97923.34
2023-03-12T03:00:21.975Z,97928.53
2023-03-12T03:02:52.009Z,97943.41
2023-03-12T03:05:20.519Z,97939.34
2023-03-12T03:07:47.786Z,97942.44
2023-03-12T03:10:17.262Z,97937.53
2023-03-12T03:12:44.515Z,97935.06
2023-03-12T03:15:12.395Z,97926.22
2023-03-12T03:17:40.651Z,97934.44
2023-03-12T03:20:11.151Z,97925.97
2023-03-12T03:22:39.295Z,97926.13
2023-03-12T03:25:07.210Z,97928.75
2023-03-12T03:27:34.198Z,97918.63
2023-03-12T03:30:02.116Z,97910.59
2023-03-12T03:32:32.789Z,97911.34
2023-03-12T03:35:00.360Z,97895.94
2023-03-12T03:37:28.400Z,97887.19
2023-03-12T03:39:55.587Z,97880.81
2023-03-12T03:42:23.027Z,97872.25
2023-03-12T03:44:50.460Z,97865.47
2023-03-12T03:47:17.741Z,97859.56
2023-03-12T03:49:44.966Z,97840.47
2023-03-12T03:52:12.921Z,97840.91
2023-03-12T03:54:40.498Z,97831.44
2023-03-12T03:57:08.354Z,97822.56
2023-03-12T03:59:35.525Z,97837.16
2023-03-12T04:02:03.965Z,97830.59
2023-03-12T04:04:34.943Z,97829.81
2023-03-12T04:07:02.373Z,97838.44
2023-03-12T04:09:31.090Z,97860.84
2023-03-12T04:11:58.475Z,97846.81
2023-03-12T04:14:26.115Z,97836.50
2023-03-12T04:16:53.482Z,97837.31
2023-03-12T04:19:21.082Z,97835.84
2023-03-12T04:21:48.894Z,97841.00
2023-03-12T04:24:17.117Z,97839.34
2023-03-12T04:26:44.921Z,97824.50
2023-03-12T04:29:14.160Z,97806.75
2023-03-12T04:31:42.048Z,97803.88
2023-03-12T04:34:10.781Z,97815.78
2023-03-12T04:36:39.229Z,97811.19
2023-03-12T04:39:07.316Z,97824.72
2023-03-12T04:41:35.613Z,97805.28
2023-03-12T04:44:13.671Z,97805.81
2023-03-12T04:46:42.916Z,97810.13
2023-03-12T04:49:13.216Z,97809.34
2023-03-12T04:51:42.609Z,97803.34
2023-03-12T04:54:10.265Z,97807.00
2023-03-12T04:56:39.472Z,97803.66
2023-03-12T04:59:06.752Z,97801.19
2023-03-12T05:01:35.405Z,97780.63
2023-03-12T05:04:07.654Z,97772.00
2023-03-12T05:06:35.005Z,97765.59
2023-03-12T05:09:02.863Z,97767.94
2023-03-12T05:11:30.320Z,97766.69
2023-03-12T05:13:57.978Z,97765.94
2023-03-12T05:16:25.422Z,97751.66
2023-03-12T05:18:53.127Z,97749.00
2023-03-12T05:21:22.243Z,97745.63
2023-03-12T05:23:52.778Z,97742.00
2023-03-12T05:26:31.725Z,97733.72
2023-03-12T05:29:11.287Z,97728.75
2023-03-12T05:31:39.314Z,97713.75
2023-03-12T05:34:07.610Z,97715.19
2023-03-12T05:36:38.995Z,97726.03
2023-03-12T05:39:06.773Z,97725.88
2023-03-12T05:41:34.941Z,97727.44
2023-03-12T05:44:13.410Z,97716.59
2023-03-12T05:46:42.421Z,97726.97
2023-03-12T05:49:10.469Z,97723.94
2023-03-12T05:51:37.863Z,97729.81
2023-03-12T05:54:05.756Z,97737.13
2023-03-12T05:56:33.327Z,97732.44
2023-03-12T05:59:00.426Z,97738.50
2023-03-12T06:01:29.210Z,97730.31
2023-03-12T06:03:58.997Z,97736.81
2023-03-12T06:06:26.962Z,97747.09
2023-03-12T06:08:54.841Z,97739.53
2023-03-12T06:11:22.015Z,97734.63
2023-03-12T06:13:49.651Z,97735.38
2023-03-12T06:16:21.670Z,97726.50
2023-03-12T06:18:52.456Z,97721.25
2023-03-12T06:21:22.864Z,97726.69
2023-03-12T06:23:52.195Z,97721.38
2023-03-12T06:26:33.945Z,97727.94
2023-03-12T06:29:01.170Z,97742.09
2023-03-12T06:31:28.960Z,97738.69
2023-03-12T06:33:56.413Z,97723.28
2023-03-12T06:36:24.267Z,97725.44
2023-03-12T06:38:51.762Z,97716.03
2023-03-12T06:41:19.353Z,97716.56
2023-03-12T06:43:46.563Z,97729.31
2023-03-12T06:46:16.330Z,97735.03
2023-03-12T06:48:46.126Z,97725.84
2023-03-12T06:51:14.211Z,97743.25
2023-03-12T06:53:42.634Z,97734.66
2023-03-12T06:56:10.409Z,97741.97
2023-03-12T06:58:38.030Z,97737.63
2023-03-12T07:01:05.377Z,97738.91
2023-03-12T07:03:33.091Z,97736.47
2023-03-12T07:06:00.397Z,97738.69
2023-03-12T07:08:31.065Z,97726.50
2023-03-12T07:11:01.485Z,97730.94
2023-03-12T07:13:30.260Z,97735.59
2023-03-12T07:15:57.341Z,97724.25
2023-03-12T07:18:24.761Z,97736.50
2023-03-12T07:20:52.101Z,97732.44
2023-03-12T07:23:19.153Z,97744.69
2023-03-12T07:25:48.102Z,97744.16
2023-03-12T07:28:16.107Z,97736.31
2023-03-12T07:30:43.734Z,97728.69
2023-03-12T07:33:12.213Z,97721.09
2023-03-12T07:35:39.839Z,97722.66
2023-03-12T07:38:08.182Z,97725.38
2023-03-12T07:40:36.063Z,97728.09
2023-03-12T07:43:04.194Z,97718.34
2023-03-12T07:45:32.705Z,97721.34
2023-03-12T07:48:00.194Z,97731.41
2023-03-12T07:50:27.754Z,97739.28
2023-03-12T07:52:55.097Z,97739.00
2023-03-12T07:55:22.686Z,97750.34
2023-03-12T07:57:49.854Z,97737.59
2023-03-12T08:00:17.753Z,97736.22
2023-03-12T08:02:45.690Z,97733.47
2023-03-12T08:05:13.723Z,97734.00
2023-03-12T08:07:40.961Z,97740.19
2023-03-12T08:10:08.777Z,97735.88
2023-03-12T08:12:37.336Z,97730.75
2023-03-12T08:15:06.084Z,97741.06
2023-03-12T08:17:33.391Z,97751.09
2023-03-12T08:20:00.443Z,97752.09
2023-03-12T08:22:27.967Z,97758.75
2023-03-12T08:24:55.420Z,97772.97
2023-03-12T08:27:22.598Z,97774.44
2023-03-12T08:29:49.602Z,97773.78
2023-03-12T08:32:17.104Z,97770.75
2023-03-12T08:34:44.801Z,97769.53
2023-03-12T08:37:11.896Z,97786.50
2023-03-12T08:39:39.182Z,97785.09
2023-03-12T08:42:07.519Z,97787.19
2023-03-12T08:44:34.848Z,97793.91
2023-03-12T08:47:02.537Z,97791.41
2023-03-12T08:49:29.694Z,97801.84
2023-03-12T08:51:56.932Z,97801.03
2023-03-12T08:54:24.073Z,97817.94
2023-03-12T08:56:51.903Z,97814.47
2023-03-12T08:59:20.374Z,97821.25
2023-03-12T09:01:47.654Z,97817.69
2023-03-12T09:04:15.187Z,97824.69
2023-03-12T09:06:42.619Z,97826.31
2023-03-12T09:09:10.365Z,97815.81
2023-03-12T09:11:39.529Z,97825.84
2023-03-12T09:15:01.137Z,97825.31
2023-03-12T09:16:54.482Z,97830.47
2023-03-12T09:19:22.203Z,97842.41
2023-03-12T09:21:49.397Z,97831.56
2023-03-12T09:24:16.816Z,97821.00
2023-03-12T09:26:43.864Z,97849.34
2023-03-12T09:29:11.299Z,97851.41
2023-03-12T09:31:38.934Z,97851.63
2023-03-12T09:34:06.179Z,97849.13
2023-03-12T09:36:33.402Z,97852.31
2023-03-12T09:39:00.944Z,97856.50
2023-03-12T09:41:30.363Z,97850.88
2023-03-12T09:44:30.402Z,97861.19
2023-03-12T09:47:04.300Z,97866.34
2023-03-12T09:49:41.950Z,97857.19
2023-03-12T09:52:24.898Z,97860.97
2023-03-12T09:54:57.161Z,97856.97
2023-03-12T09:57:25.557Z,97864.53
2023-03-12T09:59:52.842Z,97866.25
2023-03-12T10:02:42.030Z,97865.59
2023-03-12T10:05:42.902Z,97868.66
2023-03-12T10:08:46.509Z,97883.13
2023-03-12T10:11:16.798Z,97888.91
2023-03-12T10:13:54.767Z,97880.81
2023-03-12T10:16:47.098Z,97880.72
2023-03-12T10:19:26.740Z,97875.81
2023-03-12T10:22:14.154Z,97879.22
2023-03-12T10:25:14.356Z,97872.78
2023-03-12T10:27:42.166Z,97894.03
2023-03-12T10:30:20.773Z,97899.66
2023-03-12T10:32:54.221Z,97906.56
2023-03-12T10:35:23.312Z,97904.50
2023-03-12T10:37:56.967Z,97922.06
2023-03-12T10:40:34.211Z,97912.81
2023-03-12T10:43:02.003Z,97907.91
2023-03-12T10:45:50.025Z,97890.88
2023-03-12T10:48:22.624Z,97888.66
2023-03-12T10:51:09.462Z,97893.13
2023-03-12T10:53:42.545Z,97887.03
2023-03-12T10:56:13.369Z,97889.63
2023-03-12T10:58:45.704Z,97883.41
2023-03-12T11:01:21.990Z,97887.28
2023-03-12T11:03:51.181Z,97894.44
2023-03-12T11:06:29.075Z,97894.06
2023-03-12T11:09:17.025Z,97884.94
2023-03-12T11:11:47.169Z,97892.44
2023-03-12T11:14:17.470Z,97892.56
2023-03-12T11:16:44.651Z,97899.94
2023-03-12T11:19:14.085Z,97900.53
2023-03-12T11:21:41.577Z,97903.31
2023-03-12T11:24:12.409Z,97916.69
2023-03-12T11:26:53.206Z,97930.84
2023-03-12T11:29:39.396Z,97937.31
2023-03-12T11:32:15.953Z,97946.69
2023-03-12T11:34:47.276Z,97931.31
2023-03-12T11:37:36.910Z,97948.78
2023-03-12T11:40:33.610Z,97941.16
2023-03-12T11:43:43.372Z,97946.75
2023-03-12T11:46:29.980Z,97946.94
2023-03-12T11:49:18.268Z,97956.88
2023-03-12T11:52:21.039Z,97950.38
2023-03-12T11:54:53.305Z,97964.59
2023-03-12T11:57:39.154Z,97966.59
2023-03-12T12:00:12.802Z,97958.63
2023-03-12T12:03:12.173Z,97966.34
2023-03-12T12:06:04.060Z,97988.47
2023-03-12T12:08:58.743Z,97998.31
2023-03-12T12:11:35.711Z,98005.47
2023-03-12T12:14:34.944Z,98012.63
2023-03-12T12:17:25.323Z,98016.91
2023-03-12T12:20:09.333Z,98020.59
2023-03-12T12:22:52.663Z,98052.91
2023-03-12T12:25:33.408Z,98058.56
2023-03-12T12:28:08.226Z,98085.06
2023-03-12T12:30:41.195Z,98092.06
2023-03-12T12:33:46.221Z,98101.34
2023-03-12T12:36:13.983Z,98117.66
2023-03-12T12:38:44.286Z,98123.84
2023-03-12T12:41:16.325Z,98139.13
2023-03-12T12:43:51.453Z,98141.38
2023-03-12T12:46:25.088Z,98157.03
2023-03-12T12:48:55.813Z,98171.91
2023-03-12T12:51:29.854Z,98175.00
2023-03-12T12:54:01.635Z,98185.53
2023-03-12T12:56:59.202Z,98209.03
2023-03-12T12:59:31.478Z,98224.13
2023-03-12T13:01:59.763Z,98244.34
2023-03-12T13:04:36.825Z,98246.22
2023-03-12T13:07:14.010Z,98241.28
2023-03-12T13:09:52.141Z,98249.13
2023-03-12T13:12:25.857Z,98253.44
2023-03-12T13:14:53.980Z,98255.31
2023-03-12T13:17:29.150Z,98260.47
2023-03-12T13:20:20.453Z,98266.66
2023-03-12T13:23:13.001Z,98285.47
2023-03-12T13:26:08.282Z,98290.44
2023-03-12T13:28:40.878Z,98293.78
2023-03-12T13:31:15.155Z,98298.31
2023-03-12T13:33:45.209Z,98305.13
2023-03-12T13:36:15.708Z,98310.09
2023-03-12T13:39:00.273Z,98311.19
2023-03-12T13:41:34.761Z,98324.16
2023-03-12T13:44:34.453Z,98328.53
2023-03-12T13:47:10.730Z,98347.31
2023-03-12T13:50:01.316Z,98366.13
2023-03-12T13:52:40.672Z,98382.22
2023-03-12T13:55:14.401Z,98388.00
2023-03-12T13:57:45.773Z,98399.19
2023-03-12T14:00:26.914Z,98420.03
2023-03-12T14:03:22.593Z,98417.34
2023-03-12T14:06:19.965Z,98431.56
2023-03-12T14:09:11.365Z,98438.81
2023-03-12T14:12:09.012Z,98461.91
2023-03-12T14:14:49.079Z,98443.13
2023-03-12T14:17:21.567Z,98486.25
2023-03-12T14:19:52.708Z,98480.47
2023-03-12T14:22:22.596Z,98485.63
2023-03-12T14:25:01.614Z,98494.47
2023-03-12T14:27:33.134Z,98498.97
2023-03-12T14:30:12.230Z,98501.41
2023-03-12T14:32:39.647Z,98516.66
2023-03-12T14:35:46.978Z,98526.13
2023-03-12T14:38:21.972Z,98550.31
2023-03-12T14:41:29.105Z,98550.03
2023-03-12T14:44:03.718Z,98562.56
2023-03-12T14:46:31.030Z,98567.06
2023-03-12T14:48:58.323Z,98583.25
2023-03-12T14:51:29.381Z,98574.59
2023-03-12T14:53:57.146Z,98588.09
2023-03-12T14:56:33.137Z,98590.88
2023-03-12T14:59:02.594Z,98590.69
2023-03-12T15:01:31.809Z,98601.84
2023-03-12T15:04:04.141Z,98605.94
2023-03-12T15:06:37.765Z,98614.19
2023-03-12T15:09:06.421Z,98627.78
2023-03-12T15:11:34.983Z,98639.03
2023-03-12T15:14:07.559Z,98652.59
2023-03-12T15:16:34.957Z,98647.41
2023-03-12T15:19:02.697Z,98673.00
2023-03-12T15:21:34.581Z,98678.41
2023-03-12T15:24:02.593Z,98692.00
2023-03-12T15:26:31.863Z,98696.25
2023-03-12T15:29:03.230Z,98713.97
2023-03-12T15:31:44.049Z,98721.88
2023-03-12T15:34:16.366Z,98723.09
2023-03-12T15:36:48.199Z,98740.03
2023-03-12T15:39:32.934Z,98757.72
2023-03-12T15:42:10.228Z,98771.78
2023-03-12T15:44:46.232Z,98777.81
2023-03-12T15:47:21.680Z,98790.00
2023-03-12T15:49:53.234Z,98802.88
2023-03-12T15:52:24.478Z,98814.91
2023-03-12T15:55:05.504Z,98817.22
2023-03-12T15:57:34.361Z,98815.91
2023-03-12T16:00:31.622Z,98832.25
2023-03-12T16:03:00.518Z,98833.94
2023-03-12T16:05:30.608Z,98837.78
2023-03-12T16:07:57.967Z,98837.28
2023-03-12T16:10:26.741Z,98848.31
2023-03-12T16:13:03.594Z,98853.16
2023-03-12T16:15:33.049Z,98855.16
2023-03-12T16:18:00.554Z,98871.81
2023-03-12T16:20:27.931Z,98877.31
2023-03-12T16:22:55.356Z,98886.97
2023-03-12T16:25:23.314Z,98881.47
2023-03-12T16:27:54.980Z,98893.97
2023-03-12T16:30:30.776Z,98894.81
2023-03-12T16:32:58.580Z,98901.63
2023-03-12T16:35:28.034Z,98919.28
2023-03-12T16:37:55.788Z,98927.63
2023-03-12T16:40:33.038Z,98941.47
2023-03-12T16:43:03.218Z,98944.97
2023-03-12T16:45:30.880Z,98949.44
2023-03-12T16:48:03.361Z,98959.13
2023-03-12T16:50:30.965Z,98967.63
2023-03-12T16:52:58.192Z,98981.44
2023-03-12T16:55:29.822Z,98980.63
2023-03-12T16:58:01.062Z,98985.81
2023-03-12T17:00:30.124Z,98997.13
2023-03-12T17:02:57.797Z,98996.13
2023-03-12T17:05:28.853Z,98999.78
2023-03-12T17:07:56.568Z,98999.78
2023-03-12T17:10:23.978Z,99007.16
2023-03-12T17:12:51.233Z,99026.78
2023-03-12T17:15:30.717Z,99036.41
2023-03-12T17:18:02.824Z,99054.19
2023-03-12T17:20:35.754Z,99056.66
2023-03-12T17:23:03.594Z,99049.59
2023-03-12T17:25:33.009Z,99075.69
2023-03-12T17:28:00.285Z,99074.97
2023-03-12T17:30:28.674Z,99073.13
2023-03-12T17:33:09.153Z,99064.88
2023-03-12T17:35:36.522Z,99083.63
2023-03-12T17:38:03.785Z,99082.25
2023-03-12T17:40:31.257Z,99090.16
2023-03-12T17:42:58.682Z,99096.94
2023-03-12T17:45:25.974Z,99111.69
2023-03-12T17:47:53.490Z,99124.28
2023-03-12T17:50:20.575Z,99129.09
2023-03-12T17:52:48.163Z,99136.88
2023-03-12T17:55:15.254Z,99158.72
2023-03-12T17:57:44.741Z,99154.56
2023-03-12T18:00:12.625Z,99161.53
2023-03-12T18:02:40.217Z,99164.19
2023-03-12T18:05:08.931Z,99171.50
2023-03-12T18:07:36.301Z,99171.13
2023-03-12T18:10:05.725Z,99165.41
2023-03-12T18:12:32.979Z,99165.50
2023-03-12T18:15:00.843Z,99177.84
2023-03-12T18:17:28.060Z,99179.81
2023-03-12T18:19:55.201Z,99193.25
2023-03-12T18:22:22.874Z,99195.09
2023-03-12T18:24:50.628Z,99190.59
2023-03-12T18:27:17.740Z,99203.06
2023-03-12T18:29:44.889Z,99215.66
2023-03-12T18:32:12.229Z,99211.47
2023-03-12T18:34:42.064Z,99221.59
2023-03-12T18:37:09.296Z,99228.94
2023-03-12T18:39:36.603Z,99226.00
2023-03-12T18:42:03.737Z,99238.16
2023-03-12T18:44:31.219Z,99244.00
2023-03-12T18:46:58.382Z,99249.31
2023-03-12T18:49:26.087Z,99257.72
2023-03-12T18:51:55.664Z,99252.38
2023-03-12T18:54:24.669Z,99255.03
2023-03-12T18:56:52.078Z,99263.31
2023-03-12T18:59:19.592Z,99271.44
2023-03-12T19:01:46.921Z,99288.09
2023-03-12T19:04:16.575Z,99284.84
2023-03-12T19:06:50.873Z,99291.63
2023-03-12T19:09:19.273Z,99298.38
2023-03-12T19:11:47.966Z,99315.84
2023-03-12T19:14:15.277Z,99318.13
2023-03-12T19:16:42.916Z,99321.47
2023-03-12T19:19:10.657Z,99323.03
2023-03-12T19:21:37.786Z,99322.66
2023-03-12T19:24:05.005Z,99338.72
2023-03-12T19:26:32.182Z,99337.47
2023-03-12T19:28:59.605Z,99350.50
2023-03-12T19:31:26.819Z,99352.44
2023-03-12T19:33:54.267Z,99362.38
2023-03-12T19:36:21.617Z,99368.22
2023-03-12T19:38:49.079Z,99367.13
2023-03-12T19:41:17.097Z,99366.59
2023-03-12T19:43:44.475Z,99378.56
2023-03-12T19:46:11.790Z,99380.81
2023-03-12T19:48:39.281Z,99397.88
2023-03-12T19:51:10.430Z,99394.75
2023-03-12T19:53:37.956Z,99392.53
2023-03-12T19:56:05.690Z,99398.41
2023-03-12T19:58:32.764Z,99417.13
2023-03-12T20:01:00.891Z,99413.03
2023-03-12T20:03:28.543Z,99406.06
2023-03-12T20:05:55.968Z,99426.16
2023-03-12T20:08:26.083Z,99424.75
2023-03-12T20:10:53.408Z,99429.47
2023-03-12T20:13:20.501Z,99436.03
2023-03-12T20:15:48.495Z,99443.16
2023-03-12T20:18:15.964Z,99446.09
2023-03-12T20:20:43.319Z,99454.44
2023-03-12T20:23:10.903Z,99467.72
2023-03-12T20:25:41.652Z,99464.47
2023-03-12T20:28:10.811Z,99480.25
2023-03-12T20:30:40.511Z,99464.56
2023-03-12T20:33:08.236Z,99467.66
2023-03-12T20:35:36.138Z,99483.72
2023-03-12T20:38:03.484Z,99488.09
2023-03-12T20:40:30.805Z,99487.22
2023-03-12T20:42:58.524Z,99498.56
2023-03-12T20:45:25.616Z,99505.41
2023-03-12T20:47:53.425Z,99507.09
2023-03-12T20:50:20.635Z,99514.06
2023-03-12T20:52:47.759Z,99514.06
2023-03-12T20:55:15.384Z,99514.06
2023-03-12T20:57:42.899Z,99526.50
2023-03-12T21:00:11.169Z,99530.25
2023-03-12T21:02:38.699Z,99532.31
2023-03-12T21:05:06.226Z,99528.72
2023-03-12T21:07:33.960Z,99527.28
2023-03-12T21:10:01.244Z,99537.75
2023-03-12T21:12:28.326Z,99534.97
2023-03-12T21:14:55.575Z,99549.81
2023-03-12T21:17:23.141Z,99541.84
2023-03-12T21:19:50.623Z,99552.34
2023-03-12T21:22:17.752Z,99553.16
2023-03-12T21:24:45.087Z,99552.69
2023-03-12T21:27:12.671Z,99558.59
2023-03-12T21:29:40.253Z,99565.72
2023-03-12T21:32:07.677Z,99570.91
2023-03-12T21:34:34.732Z,99571.88
2023-03-12T21:37:02.149Z,99594.25
2023-03-12T21:39:29.340Z,99599.28
2023-03-12T21:41:56.663Z,99601.44
2023-03-12T21:44:23.909Z,99609.13
2023-03-12T21:46:51.958Z,99618.88
2023-03-12T21:49:19.577Z,99620.44
2023-03-12T21:51:47.309Z,99613.19
2023-03-12T21:54:14.695Z,99629.69
2023-03-12T21:56:42.112Z,99635.59
2023-03-12T21:59:10.666Z,99630.84
2023-03-12T22:01:38.142Z,99641.91
2023-03-12T22:04:05.631Z,99636.47
2023-03-12T22:06:32.932Z,99654.53
2023-03-12T22:09:00.117Z,99653.56
2023-03-12T22:11:27.466Z,99667.28
2023-03-12T22:13:54.586Z,99670.22
2023-03-12T22:16:22.146Z,99688.44
2023-03-12T22:18:49.974Z,99700.59
2023-03-12T22:21:18.659Z,99714.78
2023-03-12T22:23:50.995Z,99721.66
2023-03-12T22:26:19.508Z,99727.16
2023-03-12T22:28:54.885Z,99724.69
2023-03-12T22:31:23.149Z,99736.97
2023-03-12T22:33:50.739Z,99743.16
2023-03-12T22:36:18.218Z,99755.13
2023-03-12T22:38:47.740Z,99758.66
2023-03-12T22:41:19.444Z,99772.88
2023-03-12T22:43:47.328Z,99771.78
2023-03-12T22:46:16.211Z,99789.88
2023-03-12T22:48:44.379Z,99786.63
2023-03-12T22:51:11.907Z,99795.44
2023-03-12T22:53:39.217Z,99801.31
2023-03-12T22:56:08.319Z,99802.66
2023-03-12T22:58:35.528Z,99809.72
2023-03-12T23:01:08.299Z,99818.53
2023-03-12T23:03:36.298Z,99825.22
2023-03-12T23:06:03.674Z,99829.94
2023-03-12T23:08:31.213Z,99836.53
2023-03-12T23:11:00.440Z,99853.28
2023-03-12T23:13:28.626Z,99854.22
2023-03-12T23:16:02.764Z,99864.94
2023-03-12T23:18:30.262Z,99874.66
2023-03-12T23:20:59.331Z,99874.66
2023-03-12T23:23:26.663Z,99879.09
2023-03-12T23:25:55.483Z,99885.16
2023-03-12T23:28:22.800Z,99898.16
2023-03-12T23:31:00.986Z,99903.94
2023-03-12T23:33:28.479Z,99911.66
2023-03-12T23:36:03.301Z,99913.22
2023-03-12T23:38:31.005Z,99920.13
2023-03-12T23:41:18.008Z,99924.34
2023-03-12T23:43:45.202Z,99925.75
2023-03-12T23:46:13.307Z,99934.53
2023-03-12T23:48:40.953Z,99946.81
2023-03-12T23:51:11.134Z,99951.25
2023-03-12T23:53:39.457Z,99964.38
2023-03-12T23:56:08.968Z,99966.66
2023-03-12T23:58:36.712Z,99989.28
